Time;durP1;ratioP1;P1;durP2;ratioP2;P2;SDS_P1;SDS_P2;PMS_P1;PMS_P2;Temp;Humidity;BMP_temperature;BMP_pressure;BME280_temperature;BME280_humidity;BME280_pressure;Samples;Min_cycle;Max_cycle;Signal;HPM_P1;HPM_P2
2023/05/07 00:00:28;;;;;;;3.30;2.50;;;17.70;99.90;;;;;;7388109;19;20153;-74
2023/05/07 00:02:54;;;;;;;5.40;2.75;;;17.60;99.90;;;;;;7379342;19;20150;-73
2023/05/07 00:05:20;;;;;;;3.67;2.83;;;17.60;99.90;;;;;;7386393;19;20134;-73
2023/05/07 00:07:46;;;;;;;5.70;2.92;;;17.60;99.90;;;;;;7388594;19;20180;-74
2023/05/07 00:10:12;;;;;;;3.67;2.80;;;17.60;99.90;;;;;;7390238;19;20161;-73
2023/05/07 00:12:38;;;;;;;3.55;2.80;;;17.40;99.90;;;;;;7388973;19;20221;-74
2023/05/07 00:15:05;;;;;;;5.78;3.08;;;17.30;99.90;;;;;;7390300;19;20155;-73
2023/05/07 00:17:33;;;;;;;3.97;2.92;;;17.10;99.90;;;;;;7386770;19;20205;-73
2023/05/07 00:19:59;;;;;;;5.50;2.90;;;17.20;99.90;;;;;;7382651;19;20199;-73
2023/05/07 00:22:25;;;;;;;3.95;2.70;;;17.30;99.90;;;;;;7384116;19;20156;-73
2023/05/07 00:24:51;;;;;;;4.47;2.95;;;17.20;99.90;;;;;;7389428;19;20149;-73
2023/05/07 00:27:16;;;;;;;4.47;3.17;;;17.00;99.90;;;;;;7386855;19;20153;-73
2023/05/07 00:29:42;;;;;;;4.13;2.90;;;17.10;99.90;;;;;;7385301;19;20234;-73
2023/05/07 00:32:08;;;;;;;3.85;2.80;;;16.90;99.90;;;;;;7383149;19;20618;-73
2023/05/07 00:34:34;;;;;;;3.42;2.97;;;17.00;99.90;;;;;;7370436;19;20175;-73
2023/05/07 00:37:01;;;;;;;4.03;2.90;;;17.10;99.90;;;;;;7380762;19;20155;-73
2023/05/07 00:39:26;;;;;;;4.25;3.10;;;17.20;99.90;;;;;;7389958;19;20141;-73
2023/05/07 00:41:52;;;;;;;2.65;2.28;;;17.10;99.90;;;;;;7388756;19;20139;-73
2023/05/07 00:44:18;;;;;;;4.03;3.10;;;17.10;99.90;;;;;;7384357;19;20606;-73
2023/05/07 00:46:44;;;;;;;5.25;3.75;;;17.00;99.90;;;;;;7386562;19;20146;-75
2023/05/07 00:49:11;;;;;;;3.97;2.60;;;16.90;99.90;;;;;;7388621;19;20135;-73
2023/05/07 00:51:37;;;;;;;3.78;2.58;;;17.00;99.90;;;;;;7384607;19;20146;-73
2023/05/07 00:54:03;;;;;;;2.88;2.60;;;17.10;99.90;;;;;;7386813;19;20162;-73
2023/05/07 00:56:29;;;;;;;3.53;2.88;;;16.90;99.90;;;;;;7369990;19;20151;-73
2023/05/07 00:58:55;;;;;;;3.90;2.60;;;17.10;99.90;;;;;;7386435;19;20164;-72
2023/05/07 01:01:21;;;;;;;5.20;2.85;;;16.80;99.90;;;;;;7384280;19;20483;-72
2023/05/07 01:03:46;;;;;;;4.57;2.60;;;16.90;99.90;;;;;;7386748;19;20160;-73
2023/05/07 01:06:16;;;;;;;3.58;2.47;;;16.80;99.90;;;;;;7378258;19;20149;-73
2023/05/07 01:08:42;;;;;;;2.80;2.50;;;16.70;99.90;;;;;;7388087;19;20776;-73
2023/05/07 01:11:09;;;;;;;3.50;2.10;;;16.70;99.90;;;;;;7386615;19;20719;-73
2023/05/07 01:13:36;;;;;;;2.60;2.20;;;16.90;99.90;;;;;;7389490;19;20147;-73
2023/05/07 01:16:03;;;;;;;5.68;2.75;;;16.90;99.90;;;;;;7389412;19;20165;-73
2023/05/07 01:18:29;;;;;;;6.00;2.30;;;17.00;99.90;;;;;;7386155;19;20598;-73
2023/05/07 01:20:58;;;;;;;3.95;2.70;;;17.00;99.90;;;;;;7386660;19;20622;-73
2023/05/07 01:23:25;;;;;;;2.80;2.25;;;16.80;99.90;;;;;;7374488;19;20143;-73
2023/05/07 01:25:52;;;;;;;4.68;2.28;;;16.80;99.90;;;;;;7386371;19;20519;-73
2023/05/07 01:28:18;;;;;;;2.45;2.13;;;16.90;99.90;;;;;;7389305;19;20206;-73
2023/05/07 01:30:50;;;;;;;3.33;2.45;;;16.90;99.90;;;;;;7380831;19;20160;-72
2023/05/07 01:33:21;;;;;;;3.22;2.22;;;16.90;99.90;;;;;;7370986;19;20313;-74
2023/05/07 01:35:50;;;;;;;3.10;2.20;;;17.00;99.90;;;;;;7387879;19;20221;-73
2023/05/07 01:38:16;;;;;;;3.08;2.47;;;16.80;99.90;;;;;;7372217;19;20169;-73
2023/05/07 01:40:42;;;;;;;2.40;2.17;;;16.50;99.90;;;;;;7386217;19;20615;-72
2023/05/07 01:43:09;;;;;;;3.10;1.95;;;16.50;99.90;;;;;;7382863;19;20796;-73
2023/05/07 01:45:35;;;;;;;4.55;2.50;;;16.30;99.90;;;;;;7389316;19;20157;-73
2023/05/07 01:48:02;;;;;;;2.85;2.28;;;16.50;99.90;;;;;;7383491;19;20330;-73
2023/05/07 01:50:29;;;;;;;4.18;2.40;;;16.40;99.90;;;;;;7383701;19;20154;-74
2023/05/07 01:52:55;;;;;;;3.08;2.20;;;16.50;99.90;;;;;;7387069;19;20590;-74
2023/05/07 01:55:21;;;;;;;2.70;2.40;;;16.70;99.90;;;;;;7383244;19;20151;-73
2023/05/07 01:57:47;;;;;;;8.05;2.40;;;16.50;99.90;;;;;;7376375;19;20161;-73
2023/05/07 02:00:13;;;;;;;2.30;1.95;;;16.60;99.90;;;;;;7371675;19;20138;-73
2023/05/07 02:02:39;;;;;;;3.60;2.67;;;16.70;99.90;;;;;;7368531;19;20156;-73
2023/05/07 02:05:05;;;;;;;3.40;2.60;;;16.70;99.90;;;;;;7380868;19;20145;-73
2023/05/07 02:07:31;;;;;;;4.05;2.53;;;16.60;99.90;;;;;;7380690;19;20149;-74
2023/05/07 02:09:56;;;;;;;4.15;2.50;;;16.60;99.90;;;;;;7372505;19;21078;-73
2023/05/07 02:12:23;;;;;;;2.45;2.17;;;16.60;99.90;;;;;;7376534;19;20618;-73
2023/05/07 02:14:49;;;;;;;2.47;1.85;;;16.30;99.90;;;;;;7385294;19;20145;-73
2023/05/07 02:17:14;;;;;;;3.08;2.17;;;16.20;99.90;;;;;;7375781;19;20661;-73
2023/05/07 02:19:40;;;;;;;3.22;2.47;;;16.20;99.90;;;;;;7382930;19;20147;-73
2023/05/07 02:22:07;;;;;;;2.70;2.28;;;16.00;99.90;;;;;;7383786;19;20161;-73
2023/05/07 02:24:32;;;;;;;2.42;2.22;;;15.80;99.90;;;;;;7386630;19;20146;-74
2023/05/07 02:26:58;;;;;;;4.05;2.30;;;15.90;99.90;;;;;;7384890;19;20145;-72
2023/05/07 02:29:24;;;;;;;2.40;2.20;;;16.00;99.90;;;;;;7386380;19;20162;-72
2023/05/07 02:31:52;;;;;;;2.90;2.15;;;16.20;99.90;;;;;;7372694;19;20130;-73
2023/05/07 02:34:18;;;;;;;2.08;1.88;;;16.30;99.90;;;;;;7374251;19;20139;-73
2023/05/07 02:36:45;;;;;;;3.05;2.03;;;16.40;99.90;;;;;;7384655;19;20135;-73
2023/05/07 02:39:11;;;;;;;2.45;2.00;;;16.50;99.90;;;;;;7384912;19;20150;-73
2023/05/07 02:41:37;;;;;;;2.20;1.90;;;16.40;99.90;;;;;;7384410;19;20165;-73
2023/05/07 02:44:03;;;;;;;2.33;2.08;;;16.50;99.90;;;;;;7383656;19;20566;-73
2023/05/07 02:46:29;;;;;;;3.15;2.20;;;16.50;99.90;;;;;;7378285;19;20602;-72
2023/05/07 02:48:55;;;;;;;3.78;2.42;;;16.40;99.90;;;;;;7379659;19;20210;-73
2023/05/07 02:51:22;;;;;;;3.20;2.10;;;16.50;99.90;;;;;;7368291;19;20138;-73
2023/05/07 02:53:48;;;;;;;3.63;2.47;;;16.30;99.90;;;;;;7360889;19;20150;-72
2023/05/07 02:56:14;;;;;;;3.00;2.10;;;16.30;99.90;;;;;;7365890;19;20151;-72
2023/05/07 02:58:41;;;;;;;3.10;2.15;;;16.30;99.90;;;;;;7365589;19;20158;-73
2023/05/07 03:01:08;;;;;;;2.40;1.95;;;16.30;99.90;;;;;;7364918;19;20230;-72
2023/05/07 03:03:34;;;;;;;2.97;2.35;;;16.10;99.90;;;;;;7375815;19;20146;-72
2023/05/07 03:06:00;;;;;;;3.67;2.00;;;16.00;99.90;;;;;;7379627;19;20166;-72
2023/05/07 03:08:25;;;;;;;2.90;2.15;;;16.00;99.90;;;;;;7377279;19;20155;-72
2023/05/07 03:10:51;;;;;;;3.67;2.35;;;16.00;99.90;;;;;;7371853;19;20135;-72
2023/05/07 03:13:17;;;;;;;2.45;1.98;;;16.00;99.90;;;;;;7384317;19;20147;-72
2023/05/07 03:15:43;;;;;;;2.65;2.00;;;15.90;99.90;;;;;;7375852;19;20146;-73
2023/05/07 03:18:08;;;;;;;3.90;2.22;;;16.00;99.90;;;;;;7363557;19;20686;-72
2023/05/07 03:20:36;;;;;;;3.15;2.38;;;16.10;99.90;;;;;;7385322;19;20123;-73
2023/05/07 03:23:02;;;;;;;4.25;2.13;;;16.20;99.90;;;;;;7379817;19;20151;-73
2023/05/07 03:25:29;;;;;;;3.58;2.60;;;16.10;99.90;;;;;;7363578;19;20170;-72
2023/05/07 03:27:56;;;;;;;3.70;2.67;;;16.10;99.90;;;;;;7374048;19;20152;-73
2023/05/07 03:30:22;;;;;;;2.53;2.28;;;16.10;99.90;;;;;;7371022;19;20576;-72
2023/05/07 03:32:47;;;;;;;4.05;2.20;;;16.00;99.90;;;;;;7376389;19;20135;-73
2023/05/07 03:35:13;;;;;;;3.30;2.60;;;15.90;99.90;;;;;;7371004;19;20158;-72
2023/05/07 03:37:40;;;;;;;4.25;2.75;;;16.10;99.90;;;;;;7392665;19;20673;-72
2023/05/07 03:40:06;;;;;;;4.25;2.60;;;16.00;99.90;;;;;;7375652;19;20143;-72
2023/05/07 03:42:32;;;;;;;4.53;2.88;;;16.00;99.90;;;;;;7369091;19;20153;-72
2023/05/07 03:44:57;;;;;;;4.45;2.72;;;16.00;99.90;;;;;;7382636;19;20131;-73
2023/05/07 03:47:23;;;;;;;3.45;2.50;;;16.10;99.90;;;;;;7374674;19;21930;-73
2023/05/07 03:49:50;;;;;;;5.43;2.92;;;16.10;99.90;;;;;;7384350;19;20162;-72
2023/05/07 03:52:16;;;;;;;5.78;2.85;;;16.00;99.90;;;;;;7385509;19;20137;-73
2023/05/07 03:54:41;;;;;;;3.13;2.60;;;15.80;99.90;;;;;;7388880;19;20174;-72
2023/05/07 03:57:07;;;;;;;4.40;2.60;;;15.80;99.90;;;;;;7378053;19;20146;-73
2023/05/07 03:59:33;;;;;;;3.63;2.83;;;15.60;99.90;;;;;;7390952;19;20130;-72
2023/05/07 04:01:58;;;;;;;3.75;2.78;;;15.70;99.90;;;;;;7389648;19;20139;-72
2023/05/07 04:04:24;;;;;;;3.35;2.40;;;15.60;99.90;;;;;;7389947;19;20253;-73
2023/05/07 04:06:51;;;;;;;4.18;2.70;;;15.50;99.90;;;;;;7374177;19;20131;-73
2023/05/07 04:09:17;;;;;;;3.17;2.50;;;15.20;99.90;;;;;;7388679;19;20194;-72
2023/05/07 04:11:42;;;;;;;3.80;2.70;;;15.10;99.90;;;;;;7389777;19;20135;-72
2023/05/07 04:14:08;;;;;;;5.38;2.72;;;15.10;99.90;;;;;;7374386;19;20602;-73
2023/05/07 04:16:35;;;;;;;4.03;2.67;;;15.20;99.90;;;;;;7368632;19;20732;-72
2023/05/07 04:19:00;;;;;;;5.10;2.50;;;15.40;99.90;;;;;;7384302;19;20150;-72
2023/05/07 04:21:26;;;;;;;4.20;2.97;;;15.50;99.90;;;;;;7381627;19;20609;-73
2023/05/07 04:23:52;;;;;;;3.60;2.50;;;15.60;99.90;;;;;;7383175;19;20138;-73
2023/05/07 04:26:18;;;;;;;5.35;2.90;;;15.80;99.90;;;;;;7390162;19;20229;-73
2023/05/07 04:28:43;;;;;;;4.55;2.83;;;15.70;99.90;;;;;;7390030;19;20127;-73
2023/05/07 04:31:10;;;;;;;4.28;2.65;;;15.60;99.90;;;;;;7364068;19;20153;-72
2023/05/07 04:33:35;;;;;;;2.97;2.35;;;15.40;99.90;;;;;;7378499;19;20184;-72
2023/05/07 04:36:04;;;;;;;5.00;2.53;;;15.50;99.90;;;;;;7388855;19;20130;-73
2023/05/07 04:38:31;;;;;;;4.20;2.33;;;15.60;99.90;;;;;;7388935;19;20158;-73
2023/05/07 04:40:57;;;;;;;4.93;2.78;;;15.70;99.90;;;;;;7386300;19;20147;-73
2023/05/07 04:43:23;;;;;;;3.50;2.25;;;15.90;99.90;;;;;;7380861;19;20499;-72
2023/05/07 04:45:52;;;;;;;4.15;2.30;;;16.00;99.90;;;;;;7368177;19;20130;-73
2023/05/07 04:48:20;;;;;;;4.82;2.60;;;16.10;99.90;;;;;;7370396;19;20146;-73
2023/05/07 04:50:49;;;;;;;4.03;2.70;;;16.00;99.90;;;;;;7369090;19;20174;-73
2023/05/07 04:53:15;;;;;;;3.72;2.78;;;16.00;99.90;;;;;;7378783;19;20167;-72
2023/05/07 04:55:41;;;;;;;6.43;2.95;;;16.10;99.90;;;;;;7375205;19;20150;-73
2023/05/07 04:58:07;;;;;;;3.00;2.47;;;16.10;99.90;;;;;;7370381;19;20587;-73
2023/05/07 05:00:33;;;;;;;4.32;2.95;;;16.10;99.90;;;;;;7381322;19;20162;-74
2023/05/07 05:02:59;;;;;;;3.72;2.80;;;16.00;99.90;;;;;;7373241;19;20506;-74
2023/05/07 05:05:25;;;;;;;3.90;2.58;;;16.00;99.90;;;;;;7383333;19;20158;-72
2023/05/07 05:07:51;;;;;;;4.10;2.70;;;16.00;99.90;;;;;;7380880;19;20499;-73
2023/05/07 05:10:17;;;;;;;4.93;3.25;;;15.90;99.90;;;;;;7374947;19;20151;-72
2023/05/07 05:12:44;;;;;;;5.10;3.00;;;15.90;99.90;;;;;;7387168;19;20574;-73
2023/05/07 05:15:12;;;;;;;2.95;2.55;;;15.90;99.90;;;;;;7384308;19;20138;-74
2023/05/07 05:17:40;;;;;;;4.10;2.90;;;16.00;99.90;;;;;;7388123;19;20464;-73
2023/05/07 05:20:07;;;;;;;3.85;2.75;;;16.00;99.90;;;;;;7387376;19;20130;-73
2023/05/07 05:22:33;;;;;;;5.70;3.15;;;16.00;99.90;;;;;;7388257;19;20179;-74
2023/05/07 05:24:58;;;;;;;3.55;3.00;;;16.00;99.90;;;;;;7386716;19;20879;-73
2023/05/07 05:27:24;;;;;;;3.38;2.80;;;16.10;99.90;;;;;;7377844;19;20213;-73
2023/05/07 05:29:50;;;;;;;4.75;3.28;;;16.10;99.90;;;;;;7386460;19;20629;-73
2023/05/07 05:32:15;;;;;;;4.88;3.40;;;16.00;99.90;;;;;;7386352;19;20150;-72
2023/05/07 05:34:41;;;;;;;5.10;2.97;;;16.20;99.90;;;;;;7375843;19;20150;-74
2023/05/07 05:37:07;;;;;;;3.78;2.67;;;16.30;99.90;;;;;;7374044;19;20241;-73
2023/05/07 05:39:33;;;;;;;4.30;3.20;;;16.30;99.90;;;;;;7377593;19;20138;-73
2023/05/07 05:41:58;;;;;;;5.35;3.13;;;16.30;99.90;;;;;;7385158;19;20142;-72
2023/05/07 05:44:25;;;;;;;4.75;3.17;;;16.30;99.90;;;;;;7382458;19;20530;-73
2023/05/07 05:46:51;;;;;;;5.25;3.08;;;16.30;99.90;;;;;;7376218;19;20175;-73
2023/05/07 05:49:16;;;;;;;3.88;3.00;;;16.30;99.90;;;;;;7385173;19;20865;-71
2023/05/07 05:51:43;;;;;;;5.45;3.40;;;16.40;99.90;;;;;;7375333;19;20138;-73
2023/05/07 05:54:09;;;;;;;3.88;3.05;;;16.30;99.90;;;;;;7374629;19;20574;-72
2023/05/07 05:56:34;;;;;;;3.95;3.15;;;16.10;99.90;;;;;;7384795;19;20669;-72
2023/05/07 05:59:00;;;;;;;5.90;3.58;;;16.10;99.90;;;;;;7385189;19;20139;-74
2023/05/07 06:01:26;;;;;;;4.28;3.30;;;16.40;99.90;;;;;;7389280;19;20138;-73
2023/05/07 06:03:52;;;;;;;4.95;3.22;;;16.40;99.90;;;;;;7388970;19;20138;-73
2023/05/07 06:06:18;;;;;;;4.72;3.80;;;16.50;99.90;;;;;;7387358;19;20134;-73
2023/05/07 06:08:43;;;;;;;4.13;3.40;;;16.50;99.90;;;;;;7378963;19;20152;-73
2023/05/07 06:11:09;;;;;;;4.85;3.60;;;16.50;99.90;;;;;;7370872;19;20225;-73
2023/05/07 06:13:35;;;;;;;8.10;4.63;;;16.70;99.90;;;;;;7380994;19;20134;-73
2023/05/07 06:16:01;;;;;;;5.35;3.80;;;16.80;99.90;;;;;;7379763;19;20172;-74
2023/05/07 06:18:26;;;;;;;3.50;2.90;;;16.80;99.90;;;;;;7382633;19;20187;-73
2023/05/07 06:20:53;;;;;;;4.35;3.40;;;16.90;99.90;;;;;;7372486;19;20139;-73
2023/05/07 06:23:18;;;;;;;4.32;3.63;;;16.60;99.90;;;;;;7378294;19;20138;-73
2023/05/07 06:25:51;;;;;;;6.07;3.45;;;16.70;99.90;;;;;;7384422;19;20138;-74
2023/05/07 06:28:17;;;;;;;5.18;3.33;;;16.50;99.90;;;;;;7385536;19;20137;-73
2023/05/07 06:30:43;;;;;;;4.80;3.40;;;16.60;99.90;;;;;;7384663;19;20248;-73
2023/05/07 06:33:08;;;;;;;4.55;3.55;;;17.00;99.90;;;;;;7378653;19;20154;-72
2023/05/07 06:35:36;;;;;;;3.60;3.03;;;17.30;99.90;;;;;;7364114;19;21943;-73
2023/05/07 06:38:02;;;;;;;4.43;3.67;;;17.70;99.90;;;;;;7366359;19;20925;-73
2023/05/07 06:40:28;;;;;;;4.60;3.45;;;18.10;99.90;;;;;;7376429;19;20166;-73
2023/05/07 06:42:54;;;;;;;6.57;3.60;;;19.00;99.90;;;;;;7376095;19;20155;-72
2023/05/07 06:45:20;;;;;;;4.93;3.72;;;19.70;99.90;;;;;;7365168;19;20138;-72
2023/05/07 06:47:46;;;;;;;4.35;3.47;;;20.20;99.90;;;;;;7366436;19;20212;-72
2023/05/07 06:50:12;;;;;;;4.22;3.55;;;20.40;99.90;;;;;;7365002;19;20708;-72
2023/05/07 06:52:37;;;;;;;4.20;3.60;;;20.30;99.90;;;;;;7368297;19;20137;-72
2023/05/07 06:55:04;;;;;;;4.65;3.95;;;20.60;99.90;;;;;;7375269;19;20134;-73
2023/05/07 06:57:29;;;;;;;4.57;3.28;;;21.20;99.90;;;;;;7374170;19;20135;-73
2023/05/07 06:59:55;;;;;;;3.15;2.85;;;22.00;99.90;;;;;;7383413;19;20162;-73
2023/05/07 07:02:21;;;;;;;4.38;3.15;;;22.70;99.90;;;;;;7381536;19;20133;-74
2023/05/07 07:04:47;;;;;;;4.53;3.40;;;23.20;99.90;;;;;;7383553;19;20135;-74
2023/05/07 07:07:13;;;;;;;4.30;3.28;;;23.80;99.90;;;;;;7382157;19;20174;-73
2023/05/07 07:09:38;;;;;;;6.50;4.57;;;23.70;99.90;;;;;;7371892;19;20143;-73
2023/05/07 07:12:04;;;;;;;5.40;4.00;;;23.30;99.90;;;;;;7371596;19;20154;-73
2023/05/07 07:14:30;;;;;;;6.43;3.85;;;22.90;99.90;;;;;;7376888;19;20207;-73
2023/05/07 07:16:56;;;;;;;4.53;3.60;;;22.70;99.90;;;;;;7389441;19;20179;-73
2023/05/07 07:19:22;;;;;;;5.85;3.65;;;22.60;99.90;;;;;;7386238;19;20157;-74
2023/05/07 07:21:47;;;;;;;4.32;3.00;;;22.70;99.90;;;;;;7378003;19;20148;-73
2023/05/07 07:24:18;;;;;;;4.60;3.22;;;22.70;99.90;;;;;;7388332;19;20138;-73
2023/05/07 07:26:45;;;;;;;4.10;3.42;;;22.90;99.90;;;;;;7384642;19;20135;-73
2023/05/07 07:29:10;;;;;;;5.10;4.03;;;22.90;99.90;;;;;;7367774;19;20122;-74
2023/05/07 07:31:36;;;;;;;3.97;3.13;;;22.80;99.90;;;;;;7380108;19;20902;-73
2023/05/07 07:34:02;;;;;;;4.28;3.50;;;22.90;99.90;;;;;;7379707;19;20134;-73
2023/05/07 07:36:28;;;;;;;4.63;3.28;;;22.90;99.90;;;;;;7386351;19;20131;-74
2023/05/07 07:38:54;;;;;;;3.80;3.20;;;23.30;99.90;;;;;;7390436;19;20143;-74
2023/05/07 07:41:19;;;;;;;4.03;2.88;;;23.10;99.90;;;;;;7391482;19;20229;-75
2023/05/07 07:43:46;;;;;;;3.70;3.17;;;22.70;99.90;;;;;;7392204;19;20162;-74
2023/05/07 07:46:12;;;;;;;4.13;2.72;;;22.90;99.90;;;;;;7392642;19;20213;-73
2023/05/07 07:48:38;;;;;;;3.47;2.72;;;23.10;99.90;;;;;;7392305;19;20610;-74
2023/05/07 07:51:04;;;;;;;4.75;2.38;;;23.40;99.90;;;;;;7390376;19;20150;-74
2023/05/07 07:53:30;;;;;;;2.90;2.28;;;23.70;99.90;;;;;;7391645;19;20544;-74
2023/05/07 07:55:56;;;;;;;3.00;2.40;;;23.50;99.90;;;;;;7392864;19;20165;-74
2023/05/07 07:58:22;;;;;;;3.17;2.38;;;23.30;99.90;;;;;;7391955;19;20222;-74
2023/05/07 08:00:48;;;;;;;4.43;2.50;;;22.90;99.90;;;;;;7389741;19;20138;-73
2023/05/07 08:03:16;;;;;;;3.40;2.40;;;22.60;99.90;;;;;;7390858;19;20138;-75
2023/05/07 08:05:42;;;;;;;6.13;3.03;;;22.40;99.90;;;;;;7390496;19;20161;-74
2023/05/07 08:08:08;;;;;;;4.93;3.53;;;22.20;99.90;;;;;;7391748;19;20138;-73
2023/05/07 08:10:34;;;;;;;2.88;2.30;;;22.00;99.90;;;;;;7393623;19;20138;-73
2023/05/07 08:13:01;;;;;;;2.58;2.15;;;21.80;99.90;;;;;;7391456;19;20170;-74
2023/05/07 08:15:27;;;;;;;2.30;1.70;;;21.90;99.90;;;;;;7392596;19;20134;-73
2023/05/07 08:17:53;;;;;;;2.35;1.77;;;21.80;99.90;;;;;;7390307;19;20130;-74
2023/05/07 08:20:19;;;;;;;2.65;1.88;;;21.80;99.90;;;;;;7390613;19;20146;-75
2023/05/07 08:22:45;;;;;;;2.38;1.77;;;22.10;99.90;;;;;;7389692;19;20172;-74
2023/05/07 08:25:11;;;;;;;4.72;1.95;;;22.30;99.90;;;;;;7390235;19;20138;-76
2023/05/07 08:27:36;;;;;;;2.13;1.90;;;22.60;99.90;;;;;;7389652;19;20146;-74
2023/05/07 08:30:03;;;;;;;2.40;1.60;;;22.80;99.90;;;;;;7389231;19;20135;-75
2023/05/07 08:32:29;;;;;;;2.08;1.60;;;23.30;99.90;;;;;;7390978;19;20605;-75
2023/05/07 08:34:55;;;;;;;3.40;1.80;;;23.70;99.90;;;;;;7389320;19;20213;-75
2023/05/07 08:37:21;;;;;;;3.03;1.80;;;24.10;99.90;;;;;;7390928;19;20139;-75
2023/05/07 08:39:46;;;;;;;2.85;2.00;;;24.30;99.90;;;;;;7392793;19;20164;-75
2023/05/07 08:42:16;;;;;;;2.67;1.85;;;24.10;99.90;;;;;;7389197;19;20269;-75
2023/05/07 08:44:48;;;;;;;2.00;1.58;;;24.00;99.90;;;;;;7389506;19;20158;-75
2023/05/07 08:47:14;;;;;;;3.60;1.67;;;23.60;99.90;;;;;;7390830;19;20242;-76
2023/05/07 08:49:40;;;;;;;1.85;1.38;;;23.40;99.90;;;;;;7389662;19;20130;-72
2023/05/07 08:52:06;;;;;;;4.38;1.60;;;23.60;99.90;;;;;;7389427;19;20126;-76
2023/05/07 08:54:33;;;;;;;3.10;1.60;;;23.70;99.90;;;;;;7390483;19;20255;-75
2023/05/07 08:56:59;;;;;;;2.55;2.10;;;23.80;99.90;;;;;;7390053;19;20157;-73
2023/05/07 08:59:25;;;;;;;1.90;1.50;;;23.80;99.90;;;;;;7388146;19;20130;-73
2023/05/07 09:01:51;;;;;;;2.17;1.67;;;23.70;99.90;;;;;;7387587;19;20166;-75
2023/05/07 09:04:17;;;;;;;1.63;1.42;;;23.70;99.90;;;;;;7391566;19;20142;-78
2023/05/07 09:06:53;;;;;;;2.63;1.80;;;23.60;99.90;;;;;;7389537;19;20130;-75
2023/05/07 09:09:22;;;;;;;2.05;1.85;;;23.60;99.90;;;;;;7389689;19;20138;-77
2023/05/07 09:11:48;;;;;;;1.38;1.23;;;23.40;99.90;;;;;;7387874;19;20153;-75
2023/05/07 09:14:14;;;;;;;2.78;1.65;;;23.30;99.90;;;;;;7387904;19;20157;-77
2023/05/07 09:16:43;;;;;;;2.55;1.42;;;23.40;99.90;;;;;;7389641;19;20150;-77
2023/05/07 09:19:08;;;;;;;1.90;1.40;;;23.50;99.90;;;;;;7389321;19;20173;-76
2023/05/07 09:21:35;;;;;;;1.23;0.90;;;23.70;99.90;;;;;;7386705;19;20142;-79
2023/05/07 09:24:01;;;;;;;1.92;1.50;;;23.70;99.90;;;;;;7387279;19;20154;-75
2023/05/07 09:26:28;;;;;;;1.73;1.30;;;23.80;99.90;;;;;;7390681;19;20153;-76
2023/05/07 09:28:53;;;;;;;2.38;1.63;;;24.10;99.90;;;;;;7389479;19;20146;-75
2023/05/07 09:31:23;;;;;;;1.92;1.70;;;24.10;99.90;;;;;;7388042;19;20158;-76
2023/05/07 09:33:49;;;;;;;1.60;1.30;;;24.10;99.90;;;;;;7389295;19;20147;-74
2023/05/07 09:36:15;;;;;;;2.17;1.23;;;23.80;99.90;;;;;;7386713;19;20130;-76
2023/05/07 09:38:41;;;;;;;1.45;1.33;;;23.50;99.90;;;;;;7391379;19;20138;-76
2023/05/07 09:41:12;;;;;;;2.13;1.45;;;23.50;99.90;;;;;;7391451;19;20134;-75
2023/05/07 09:43:39;;;;;;;2.03;1.20;;;23.60;99.90;;;;;;7384679;19;20131;-73
2023/05/07 09:46:13;;;;;;;3.40;1.60;;;23.70;99.90;;;;;;7388694;19;20201;-72
2023/05/07 09:48:40;;;;;;;2.97;1.38;;;23.80;99.90;;;;;;7388140;19;20164;-73
2023/05/07 09:51:18;;;;;;;1.60;1.35;;;23.90;99.90;;;;;;7389334;19;20218;-73
2023/05/07 09:53:46;;;;;;;8.05;2.22;;;23.90;99.90;;;;;;7387156;19;20138;-74
2023/05/07 09:56:14;;;;;;;1.60;1.50;;;23.70;99.90;;;;;;7388172;19;20190;-72
2023/05/07 09:58:42;;;;;;;3.00;0.95;;;23.80;99.90;;;;;;7388822;19;20130;-72
2023/05/07 10:01:08;;;;;;;1.58;1.20;;;23.90;99.90;;;;;;7386888;19;20210;-70
2023/05/07 10:03:36;;;;;;;2.83;1.27;;;23.90;99.90;;;;;;7382440;19;20131;-75
2023/05/07 10:06:03;;;;;;;1.40;1.30;;;24.10;99.90;;;;;;7385934;19;20150;-75
2023/05/07 10:08:32;;;;;;;2.65;1.35;;;24.10;99.90;;;;;;7386376;19;20127;-74
2023/05/07 10:10:58;;;;;;;1.58;1.30;;;24.10;99.90;;;;;;7387111;19;20150;-74
2023/05/07 10:13:24;;;;;;;2.10;1.20;;;24.20;99.90;;;;;;7387619;19;20534;-74
2023/05/07 10:15:50;;;;;;;1.75;1.42;;;24.20;99.90;;;;;;7388806;19;20495;-74
2023/05/07 10:18:18;;;;;;;1.30;1.20;;;24.20;99.90;;;;;;7387316;19;20215;-73
2023/05/07 10:20:46;;;;;;;1.30;1.10;;;24.30;99.90;;;;;;7388048;19;20138;-74
2023/05/07 10:23:18;;;;;;;1.75;1.35;;;24.40;99.90;;;;;;7384245;19;20122;-74
2023/05/07 10:25:43;;;;;;;1.95;1.50;;;24.30;99.90;;;;;;7388033;19;20222;-74
2023/05/07 10:28:11;;;;;;;1.98;1.17;;;24.20;99.90;;;;;;7387926;19;20139;-75
2023/05/07 10:31:02;;;;;;;1.75;1.25;;;23.90;99.90;;;;;;7388094;19;20142;-75
2023/05/07 10:33:30;;;;;;;1.88;1.52;;;23.90;99.90;;;;;;7387171;19;20142;-76
2023/05/07 10:35:59;;;;;;;2.20;1.30;;;23.80;99.90;;;;;;7386048;19;20131;-76
2023/05/07 10:38:26;;;;;;;4.60;2.95;;;23.70;99.90;;;;;;7385970;19;20210;-75
2023/05/07 10:40:52;;;;;;;3.22;1.50;;;23.80;99.90;;;;;;7386235;19;20138;-75
2023/05/07 10:43:19;;;;;;;3.53;1.48;;;23.90;99.90;;;;;;7388662;19;20155;-75
2023/05/07 10:46:09;;;;;;;2.30;1.15;;;23.90;99.90;;;;;;7396160;19;20130;-76
2023/05/07 10:49:05;;;;;;;2.65;2.10;;;24.00;99.90;;;;;;7392473;19;20139;-76
2023/05/07 10:51:33;;;;;;;4.88;2.08;;;24.20;99.90;;;;;;7394730;19;20152;-75
2023/05/07 10:54:11;;;;;;;2.80;1.80;;;24.20;99.90;;;;;;7391268;19;20154;-75
2023/05/07 10:56:37;;;;;;;2.65;1.40;;;23.90;99.90;;;;;;7393739;19;20134;-74
2023/05/07 10:59:27;;;;;;;2.67;2.00;;;23.70;99.90;;;;;;7392044;19;20155;-75
2023/05/07 11:02:03;;;;;;;3.08;1.90;;;23.70;99.90;;;;;;7391187;19;20524;-74
2023/05/07 11:04:31;;;;;;;1.75;1.40;;;23.80;99.90;;;;;;7393969;19;20153;-74
2023/05/07 11:07:06;;;;;;;1.67;1.30;;;23.90;99.90;;;;;;7393182;19;20206;-73
2023/05/07 11:09:51;;;;;;;2.80;1.45;;;24.00;99.90;;;;;;7393238;19;20167;-72
2023/05/07 11:12:17;;;;;;;1.92;1.50;;;24.10;99.90;;;;;;7394462;19;20131;-73
2023/05/07 11:14:46;;;;;;;3.95;1.30;;;24.20;99.90;;;;;;7390812;19;20163;-74
2023/05/07 11:17:12;;;;;;;1.25;1.15;;;24.20;99.90;;;;;;7392575;19;20153;-74
2023/05/07 11:19:54;;;;;;;2.78;1.17;;;24.00;99.90;;;;;;7390193;19;20781;-74
2023/05/07 11:22:33;;;;;;;2.10;1.25;;;24.00;99.90;;;;;;7392268;19;20150;-73
2023/05/07 11:25:07;;;;;;;2.15;1.20;;;24.00;99.90;;;;;;7389091;19;20146;-74
2023/05/07 11:27:33;;;;;;;2.13;1.50;;;23.90;99.90;;;;;;7391039;19;20164;-74
2023/05/07 11:30:00;;;;;;;1.75;1.30;;;24.10;99.90;;;;;;7391333;19;20151;-74
2023/05/07 11:32:31;;;;;;;1.75;1.60;;;24.10;99.90;;;;;;7391843;19;20202;-74
2023/05/07 11:34:58;;;;;;;6.45;2.05;;;23.80;99.90;;;;;;7391770;19;20135;-73
2023/05/07 11:37:26;;;;;;;3.15;2.00;;;23.60;99.90;;;;;;7385972;19;20198;-74
2023/05/07 11:40:03;;;;;;;3.30;2.17;;;23.70;99.90;;;;;;7390521;19;20135;-73
2023/05/07 11:42:31;;;;;;;2.40;1.50;;;23.60;99.90;;;;;;7388904;19;20464;-73
2023/05/07 11:44:57;;;;;;;2.95;2.00;;;23.60;99.90;;;;;;7391124;19;20146;-73
2023/05/07 11:47:25;;;;;;;3.05;2.17;;;23.70;99.90;;;;;;7390309;19;20165;-73
2023/05/07 11:49:52;;;;;;;2.50;2.03;;;23.60;99.90;;;;;;7385071;19;20154;-73
2023/05/07 11:52:20;;;;;;;2.35;1.75;;;23.50;99.90;;;;;;7392471;19;20142;-73
2023/05/07 11:54:54;;;;;;;4.53;1.80;;;23.50;99.90;;;;;;7389036;19;20157;-74
2023/05/07 11:57:21;;;;;;;3.22;1.85;;;23.40;99.90;;;;;;7379570;19;20181;-73
2023/05/07 11:59:48;;;;;;;1.73;1.40;;;23.50;99.90;;;;;;7390244;19;20178;-73
2023/05/07 12:02:15;;;;;;;3.85;1.60;;;23.30;99.90;;;;;;7378124;19;20139;-73
2023/05/07 12:04:41;;;;;;;2.88;1.60;;;23.30;99.90;;;;;;7373439;19;20615;-73
2023/05/07 12:07:14;;;;;;;2.85;1.60;;;23.10;99.90;;;;;;7382054;19;20194;-73
2023/05/07 12:09:41;;;;;;;2.72;2.08;;;23.10;99.90;;;;;;7373337;19;20161;-74
2023/05/07 12:12:07;;;;;;;3.35;2.00;;;23.20;99.90;;;;;;7382684;19;20186;-74
2023/05/07 12:14:37;;;;;;;3.08;2.33;;;23.10;99.90;;;;;;7376740;19;20134;-74
2023/05/07 12:17:04;;;;;;;3.33;2.67;;;22.90;99.90;;;;;;7389752;19;20373;-73
2023/05/07 12:19:31;;;;;;;3.17;1.98;;;22.80;99.90;;;;;;7387707;19;20150;-73
2023/05/07 12:21:57;;;;;;;4.03;2.50;;;22.80;99.90;;;;;;7375394;19;20143;-73
2023/05/07 12:24:23;;;;;;;4.50;2.42;;;22.70;99.90;;;;;;7387889;19;20206;-75
2023/05/07 12:26:49;;;;;;;7.63;2.78;;;22.40;99.90;;;;;;7387636;19;20142;-73
2023/05/07 12:29:15;;;;;;;5.13;2.38;;;22.20;99.90;;;;;;7387366;19;20138;-73
2023/05/07 12:31:44;;;;;;;6.18;2.60;;;21.80;99.90;;;;;;7375256;19;20997;-72
2023/05/07 12:34:12;;;;;;;5.43;2.75;;;21.60;99.90;;;;;;7374901;19;20143;-73
2023/05/07 12:36:40;;;;;;;4.93;2.75;;;21.30;99.90;;;;;;7389705;19;20127;-75
2023/05/07 12:39:09;;;;;;;3.47;1.67;;;21.00;99.90;;;;;;7373515;19;20134;-72
2023/05/07 12:42:04;;;;;;;4.00;1.77;;;20.60;99.90;;;;;;7382245;19;20185;-72
2023/05/07 12:44:32;;;;;;;2.40;1.55;;;20.40;99.90;;;;;;7365658;19;20138;-75
2023/05/07 12:47:01;;;;;;;4.07;2.13;;;20.30;99.90;;;;;;7368439;19;20626;-73